sensor_id;sensor_type;location;lat;lon;timestamp;P1;durP1;ratioP1;P2;durP2;ratioP2
39078;SDS011;24829;49.208;12.080;2022-12-18T00:01:27;98.25;;;31.10;;
39078;SDS011;24829;49.208;12.080;2022-12-18T00:03:56;114.13;;;33.70;;
39078;SDS011;24829;49.208;12.080;2022-12-18T00:06:23;108.65;;;31.25;;
39078;SDS011;24829;49.208;12.080;2022-12-18T00:08:50;108.35;;;31.63;;
39078;SDS011;24829;49.208;12.080;2022-12-18T00:11:19;113.97;;;33.95;;
39078;SDS011;24829;49.208;12.080;2022-12-18T00:13:46;93.07;;;32.10;;
39078;SDS011;24829;49.208;12.080;2022-12-18T00:16:13;106.47;;;32.70;;
39078;SDS011;24829;49.208;12.080;2022-12-18T00:18:41;111.43;;;32.65;;
39078;SDS011;24829;49.208;12.080;2022-12-18T00:21:08;95.75;;;34.88;;
39078;SDS011;24829;49.208;12.080;2022-12-18T00:23:37;104.10;;;34.28;;
39078;SDS011;24829;49.208;12.080;2022-12-18T00:26:09;101.43;;;32.95;;
39078;SDS011;24829;49.208;12.080;2022-12-18T00:28:45;100.60;;;34.53;;
39078;SDS011;24829;49.208;12.080;2022-12-18T00:31:14;107.20;;;31.98;;
39078;SDS011;24829;49.208;12.080;2022-12-18T00:33:45;91.63;;;30.77;;
39078;SDS011;24829;49.208;12.080;2022-12-18T00:36:12;92.03;;;30.73;;
39078;SDS011;24829;49.208;12.080;2022-12-18T00:38:40;90.32;;;31.48;;
39078;SDS011;24829;49.208;12.080;2022-12-18T00:41:07;96.68;;;32.22;;
39078;SDS011;24829;49.208;12.080;2022-12-18T00:43:33;102.38;;;30.15;;
39078;SDS011;24829;49.208;12.080;2022-12-18T00:45:59;95.00;;;29.67;;
39078;SDS011;24829;49.208;12.080;2022-12-18T00:48:24;95.07;;;30.08;;
39078;SDS011;24829;49.208;12.080;2022-12-18T00:50:50;84.30;;;28.50;;
39078;SDS011;24829;49.208;12.080;2022-12-18T00:53:16;86.78;;;28.17;;
39078;SDS011;24829;49.208;12.080;2022-12-18T00:55:42;94.50;;;30.50;;
39078;SDS011;24829;49.208;12.080;2022-12-18T00:58:08;71.80;;;26.38;;
39078;SDS011;24829;49.208;12.080;2022-12-18T01:00:35;90.15;;;27.92;;
39078;SDS011;24829;49.208;12.080;2022-12-18T01:03:00;72.68;;;25.08;;
39078;SDS011;24829;49.208;12.080;2022-12-18T01:05:26;83.22;;;26.73;;
39078;SDS011;24829;49.208;12.080;2022-12-18T01:07:52;76.50;;;28.73;;
39078;SDS011;24829;49.208;12.080;2022-12-18T01:10:18;82.22;;;26.52;;
39078;SDS011;24829;49.208;12.080;2022-12-18T01:12:43;78.63;;;25.20;;
39078;SDS011;24829;49.208;12.080;2022-12-18T01:15:09;78.25;;;25.75;;
39078;SDS011;24829;49.208;12.080;2022-12-18T01:17:36;73.65;;;23.88;;
39078;SDS011;24829;49.208;12.080;2022-12-18T01:20:02;72.53;;;25.20;;
39078;SDS011;24829;49.208;12.080;2022-12-18T01:22:28;81.20;;;24.90;;
39078;SDS011;24829;49.208;12.080;2022-12-18T01:24:54;80.25;;;27.67;;
39078;SDS011;24829;49.208;12.080;2022-12-18T01:27:19;81.50;;;25.67;;
39078;SDS011;24829;49.208;12.080;2022-12-18T01:29:45;68.53;;;24.42;;
39078;SDS011;24829;49.208;12.080;2022-12-18T01:32:10;77.45;;;23.98;;
39078;SDS011;24829;49.208;12.080;2022-12-18T01:34:36;69.80;;;26.33;;
39078;SDS011;24829;49.208;12.080;2022-12-18T01:37:05;75.82;;;25.55;;
39078;SDS011;24829;49.208;12.080;2022-12-18T01:39:31;73.43;;;25.13;;
39078;SDS011;24829;49.208;12.080;2022-12-18T01:41:57;77.55;;;28.02;;
39078;SDS011;24829;49.208;12.080;2022-12-18T01:47:22;71.25;;;24.30;;
39078;SDS011;24829;49.208;12.080;2022-12-18T01:49:51;72.78;;;24.05;;
39078;SDS011;24829;49.208;12.080;2022-12-18T01:52:17;69.03;;;23.50;;
39078;SDS011;24829;49.208;12.080;2022-12-18T01:54:43;65.80;;;23.92;;
39078;SDS011;24829;49.208;12.080;2022-12-18T01:57:10;69.68;;;24.83;;
39078;SDS011;24829;49.208;12.080;2022-12-18T01:59:36;68.28;;;23.38;;
39078;SDS011;24829;49.208;12.080;2022-12-18T02:02:02;65.65;;;23.95;;
39078;SDS011;24829;49.208;12.080;2022-12-18T02:04:28;68.03;;;23.60;;
39078;SDS011;24829;49.208;12.080;2022-12-18T02:10:59;64.95;;;23.52;;
39078;SDS011;24829;49.208;12.080;2022-12-18T02:13:16;60.35;;;20.73;;
39078;SDS011;24829;49.208;12.080;2022-12-18T02:18:27;64.72;;;21.80;;
39078;SDS011;24829;49.208;12.080;2022-12-18T02:26:56;63.72;;;20.27;;
39078;SDS011;24829;49.208;12.080;2022-12-18T02:29:16;66.35;;;21.15;;
39078;SDS011;24829;49.208;12.080;2022-12-18T02:31:48;63.22;;;22.05;;
39078;SDS011;24829;49.208;12.080;2022-12-18T02:34:17;64.47;;;22.50;;
39078;SDS011;24829;49.208;12.080;2022-12-18T02:36:44;71.50;;;26.27;;
39078;SDS011;24829;49.208;12.080;2022-12-18T02:39:12;60.42;;;23.02;;
39078;SDS011;24829;49.208;12.080;2022-12-18T02:41:39;70.13;;;20.65;;
39078;SDS011;24829;49.208;12.080;2022-12-18T02:44:09;53.45;;;19.10;;
39078;SDS011;24829;49.208;12.080;2022-12-18T02:46:38;57.17;;;20.02;;
39078;SDS011;24829;49.208;12.080;2022-12-18T02:49:11;61.25;;;20.48;;
39078;SDS011;24829;49.208;12.080;2022-12-18T02:51:50;55.45;;;20.85;;
39078;SDS011;24829;49.208;12.080;2022-12-18T03:00:06;60.55;;;19.27;;
39078;SDS011;24829;49.208;12.080;2022-12-18T03:02:39;48.45;;;19.17;;
39078;SDS011;24829;49.208;12.080;2022-12-18T03:08:06;53.90;;;18.38;;
39078;SDS011;24829;49.208;12.080;2022-12-18T03:10:37;57.67;;;21.95;;
